Time;durP1;ratioP1;P1;durP2;ratioP2;P2;SDS_P1;SDS_P2;PMS_P1;PMS_P2;Temp;Humidity;BMP_temperature;BMP_pressure;BME280_temperature;BME280_humidity;BME280_pressure;Samples;Min_cycle;Max_cycle;Signal;HPM_P1;HPM_P2
2022/09/01 00:01:40;;;;;;;7.97;5.40;;;;;;;;;;7397409;19;20006;-78
2022/09/01 00:04:07;;;;;;;5.95;4.97;;;;;;;;;;7393595;19;20734;-78
2022/09/01 00:06:33;;;;;;;7.07;5.32;;;;;;;;;;7396607;19;20025;-78
2022/09/01 00:09:04;;;;;;;6.13;4.50;;;;;;;;;;7395802;19;20114;-79
2022/09/01 00:11:30;;;;;;;7.47;5.82;;;;;;;;;;7397082;19;20038;-77
2022/09/01 00:13:56;;;;;;;6.93;5.03;;;;;;;;;;7396074;19;20013;-78
2022/09/01 00:16:21;;;;;;;8.13;5.70;;;;;;;;;;7397728;19;20002;-78
2022/09/01 00:18:49;;;;;;;7.57;5.25;;;;;;;;;;7396904;19;20055;-78
2022/09/01 00:21:24;;;;;;;7.55;6.00;;;;;;;;;;7399154;19;20063;-78
2022/09/01 00:23:50;;;;;;;7.90;5.72;;;;;;;;;;7394813;19;20893;-77
2022/09/01 00:26:15;;;;;;;7.28;5.28;;;;;;;;;;7396551;19;20062;-77
2022/09/01 00:28:41;;;;;;;8.63;6.70;;;;;;;;;;7393665;19;20013;-77
2022/09/01 00:31:08;;;;;;;6.03;4.88;;;;;;;;;;7394463;19;20444;-77
2022/09/01 00:33:34;;;;;;;7.07;5.15;;;;;;;;;;7391066;19;20007;-77
2022/09/01 00:36:00;;;;;;;7.30;5.82;;;;;;;;;;7396055;19;20010;-77
2022/09/01 00:38:26;;;;;;;8.90;6.10;;;;;;;;;;7395383;19;20006;-77
2022/09/01 00:40:52;;;;;;;5.78;4.70;;;;;;;;;;7394316;19;20006;-78
2022/09/01 00:43:40;;;;;;;6.53;5.38;;;;;;;;;;7393628;19;20022;-78
2022/09/01 00:46:08;;;;;;;8.48;5.75;;;;;;;;;;7394707;19;20006;-77
2022/09/01 00:48:34;;;;;;;6.55;5.32;;;;;;;;;;7392580;19;20048;-77
2022/09/01 00:51:00;;;;;;;8.40;5.47;;;;;;;;;;7394733;19;20014;-78
2022/09/01 00:53:26;;;;;;;8.95;5.57;;;;;;;;;;7391691;19;20007;-78
2022/09/01 00:55:51;;;;;;;5.43;4.65;;;;;;;;;;7395851;19;20007;-78
2022/09/01 00:58:17;;;;;;;5.70;4.70;;;;;;;;;;7396300;19;20013;-77
2022/09/01 01:00:45;;;;;;;5.35;4.47;;;;;;;;;;7395140;19;20078;-78
2022/09/01 01:03:12;;;;;;;6.35;4.93;;;;;;;;;;7392437;19;20481;-77
2022/09/01 01:05:44;;;;;;;5.93;4.80;;;;;;;;;;7391300;19;20006;-79
2022/09/01 01:08:10;;;;;;;8.13;5.72;;;;;;;;;;7394516;19;20014;-77
2022/09/01 01:10:39;;;;;;;6.57;5.38;;;;;;;;;;7394217;19;20376;-79
2022/09/01 01:13:08;;;;;;;6.05;4.32;;;;;;;;;;7393344;19;20007;-77
2022/09/01 01:15:33;;;;;;;7.60;5.18;;;;;;;;;;7392961;19;20448;-78
2022/09/01 01:17:59;;;;;;;7.22;5.40;;;;;;;;;;7390655;19;19998;-78
2022/09/01 01:23:24;;;;;;;5.63;4.40;;;;;;;;;;7393773;19;20160;-78
2022/09/01 01:25:53;;;;;;;7.38;5.38;;;;;;;;;;7392416;19;20018;-78
2022/09/01 01:28:39;;;;;;;8.63;5.80;;;;;;;;;;7394562;19;20350;-77
2022/09/01 01:31:13;;;;;;;;;;;;;;;;;;7393949;19;20021;-77
2022/09/01 01:33:53;;;;;;;7.55;4.50;;;;;;;;;;7389712;19;19950;-78
2022/09/01 01:36:35;;;;;;;9.02;5.55;;;;;;;;;;7392172;19;20026;-78
2022/09/01 01:39:07;;;;;;;6.18;4.88;;;;;;;;;;7393686;19;20015;-78
2022/09/01 01:41:35;;;;;;;7.07;5.20;;;;;;;;;;7395601;19;20003;-78
2022/09/01 01:44:03;;;;;;;8.15;5.25;;;;;;;;;;7401865;19;20055;-77
2022/09/01 01:46:29;;;;;;;6.15;4.72;;;;;;;;;;7399149;19;20010;-78
2022/09/01 01:48:55;;;;;;;9.50;5.53;;;;;;;;;;7402739;19;20010;-78
2022/09/01 01:51:25;;;;;;;7.10;5.55;;;;;;;;;;7400417;19;20018;-78
2022/09/01 01:53:51;;;;;;;6.80;5.72;;;;;;;;;;7400504;19;20033;-78
2022/09/01 01:56:18;;;;;;;7.07;5.22;;;;;;;;;;7401655;19;20387;-77
2022/09/01 01:58:44;;;;;;;7.07;5.05;;;;;;;;;;7402505;19;20452;-78
2022/09/01 02:01:11;;;;;;;7.55;5.10;;;;;;;;;;7400154;19;20006;-77
2022/09/01 02:03:37;;;;;;;9.70;5.82;;;;;;;;;;7399126;19;20527;-78
2022/09/01 02:06:08;;;;;;;6.50;5.05;;;;;;;;;;7399555;19;20007;-78
2022/09/01 02:08:36;;;;;;;6.75;4.90;;;;;;;;;;7401981;19;20041;-77
2022/09/01 02:11:02;;;;;;;7.88;4.97;;;;;;;;;;7402856;19;20006;-78
2022/09/01 02:13:30;;;;;;;6.03;4.93;;;;;;;;;;7397703;19;20007;-78
2022/09/01 02:16:02;;;;;;;5.45;4.60;;;;;;;;;;7397479;19;20014;-78
2022/09/01 02:18:35;;;;;;;6.63;5.35;;;;;;;;;;7400750;19;20006;-78
2022/09/01 02:21:08;;;;;;;7.00;5.03;;;;;;;;;;7398891;19;20025;-77
2022/09/01 02:23:34;;;;;;;7.85;5.35;;;;;;;;;;7401994;19;20064;-78
2022/09/01 02:26:01;;;;;;;7.47;5.63;;;;;;;;;;7401041;19;20481;-78
2022/09/01 02:28:27;;;;;;;7.75;5.10;;;;;;;;;;7402374;19;20003;-78
2022/09/01 02:30:53;;;;;;;7.53;5.18;;;;;;;;;;7399524;19;20034;-78
2022/09/01 02:33:21;;;;;;;7.18;5.57;;;;;;;;;;7396383;19;20698;-78
2022/09/01 02:35:49;;;;;;;7.30;5.47;;;;;;;;;;7397978;19;20014;-77
2022/09/01 02:38:16;;;;;;;8.82;5.82;;;;;;;;;;7402106;19;19987;-78
2022/09/01 02:40:45;;;;;;;7.93;5.57;;;;;;;;;;7400618;19;19999;-79
2022/09/01 02:43:12;;;;;;;8.73;5.90;;;;;;;;;;7397252;19;20360;-78
2022/09/01 02:45:38;;;;;;;8.57;6.10;;;;;;;;;;7395221;19;20013;-78
2022/09/01 02:48:09;;;;;;;7.72;6.03;;;;;;;;;;7396759;19;20433;-78
2022/09/01 02:50:36;;;;;;;10.50;6.00;;;;;;;;;;7396086;19;20007;-79
2022/09/01 02:53:05;;;;;;;7.18;5.25;;;;;;;;;;7393616;19;20035;-79
2022/09/01 02:55:31;;;;;;;7.03;4.60;;;;;;;;;;7398118;19;20007;-78
2022/09/01 02:57:57;;;;;;;8.35;5.68;;;;;;;;;;7399230;19;20007;-79
2022/09/01 03:00:30;;;;;;;8.85;5.97;;;;;;;;;;7399099;19;20035;-77
2022/09/01 03:02:57;;;;;;;7.80;5.80;;;;;;;;;;7398211;19;20002;-78
2022/09/01 03:05:25;;;;;;;7.78;5.70;;;;;;;;;;7400209;19;20022;-78
2022/09/01 03:08:03;;;;;;;6.50;5.35;;;;;;;;;;7399865;19;20013;-78
2022/09/01 03:10:36;;;;;;;7.25;5.40;;;;;;;;;;7397717;19;20016;-78
2022/09/01 03:13:06;;;;;;;5.63;4.07;;;;;;;;;;7399497;19;20029;-78
2022/09/01 03:15:32;;;;;;;6.05;4.80;;;;;;;;;;7395833;19;20002;-77
2022/09/01 03:17:59;;;;;;;10.23;6.35;;;;;;;;;;7395899;19;20021;-77
2022/09/01 03:20:26;;;;;;;7.40;6.05;;;;;;;;;;7400688;19;20026;-78
2022/09/01 03:22:51;;;;;;;8.10;6.07;;;;;;;;;;7398946;19;20098;-77
2022/09/01 03:25:17;;;;;;;9.93;6.13;;;;;;;;;;7401454;19;20007;-78
2022/09/01 03:27:43;;;;;;;6.47;4.93;;;;;;;;;;7396586;19;20015;-77
2022/09/01 03:30:09;;;;;;;6.72;5.60;;;;;;;;;;7399504;19;20360;-79
2022/09/01 03:32:35;;;;;;;8.07;5.63;;;;;;;;;;7399970;19;20029;-78
2022/09/01 03:35:01;;;;;;;7.78;5.55;;;;;;;;;;7397272;19;20356;-77
2022/09/01 03:37:26;;;;;;;7.50;5.20;;;;;;;;;;7395696;19;20006;-78
2022/09/01 03:39:51;;;;;;;7.78;4.88;;;;;;;;;;7395652;19;19991;-78
2022/09/01 03:42:24;;;;;;;8.10;5.78;;;;;;;;;;7395921;19;20078;-77
2022/09/01 03:44:50;;;;;;;8.27;5.55;;;;;;;;;;7399265;19;20453;-78
2022/09/01 03:47:16;;;;;;;8.38;6.60;;;;;;;;;;7398194;19;20011;-79
2022/09/01 03:49:42;;;;;;;10.07;6.82;;;;;;;;;;7396381;19;20042;-78
2022/09/01 03:52:09;;;;;;;8.25;6.07;;;;;;;;;;7397689;19;20346;-78
2022/09/01 03:54:35;;;;;;;7.88;6.15;;;;;;;;;;7397195;19;20014;-77
2022/09/01 03:57:00;;;;;;;10.68;6.30;;;;;;;;;;7398622;19;20010;-78
2022/09/01 03:59:27;;;;;;;9.25;6.68;;;;;;;;;;7395491;19;20017;-78
2022/09/01 04:01:52;;;;;;;8.73;5.93;;;;;;;;;;7394762;19;20322;-78
2022/09/01 04:04:18;;;;;;;8.20;6.60;;;;;;;;;;7396074;19;20032;-78
2022/09/01 04:06:44;;;;;;;8.00;5.50;;;;;;;;;;7395517;19;20023;-76
2022/09/01 04:09:10;;;;;;;8.35;6.05;;;;;;;;;;7396088;19;20018;-78
2022/09/01 04:11:38;;;;;;;7.35;5.50;;;;;;;;;;7398026;19;20025;-77
2022/09/01 04:14:04;;;;;;;7.43;5.90;;;;;;;;;;7395218;19;20022;-77
2022/09/01 04:19:25;;;;;;;7.90;5.65;;;;;;;;;;7397306;19;20134;-77
2022/09/01 04:21:53;;;;;;;8.23;5.88;;;;;;;;;;7395068;19;20021;-77
2022/09/01 04:24:22;;;;;;;6.82;5.15;;;;;;;;;;7393627;19;20130;-76
2022/09/01 04:26:48;;;;;;;6.28;5.10;;;;;;;;;;7393102;19;20002;-77
2022/09/01 04:29:17;;;;;;;7.22;5.45;;;;;;;;;;7394445;19;20106;-77
2022/09/01 04:31:43;;;;;;;7.85;6.07;;;;;;;;;;7392880;19;20038;-77
2022/09/01 04:34:12;;;;;;;7.05;5.47;;;;;;;;;;7392584;19;20074;-77
2022/09/01 04:36:40;;;;;;;7.28;5.53;;;;;;;;;;7392897;19;20020;-77
2022/09/01 04:39:08;;;;;;;7.18;4.80;;;;;;;;;;7393239;19;20010;-77
2022/09/01 04:41:39;;;;;;;8.65;6.07;;;;;;;;;;7393396;19;20006;-77
2022/09/01 04:44:05;;;;;;;8.48;5.68;;;;;;;;;;7392734;19;20082;-77
2022/09/01 04:46:38;;;;;;;10.70;6.72;;;;;;;;;;7392226;19;20015;-78
2022/09/01 04:49:09;;;;;;;8.40;6.10;;;;;;;;;;7394297;19;20052;-77
2022/09/01 04:51:39;;;;;;;9.50;5.95;;;;;;;;;;7396785;19;20022;-78
2022/09/01 04:54:08;;;;;;;7.78;5.95;;;;;;;;;;7398817;19;20340;-79
2022/09/01 04:56:34;;;;;;;9.45;6.75;;;;;;;;;;7396952;19;20191;-78
2022/09/01 04:59:00;;;;;;;8.23;5.28;;;;;;;;;;7394760;19;20118;-76
2022/09/01 05:01:26;;;;;;;6.45;4.80;;;;;;;;;;7391612;19;20440;-77
2022/09/01 05:04:00;;;;;;;8.38;5.72;;;;;;;;;;7392972;19;20026;-79
2022/09/01 05:06:27;;;;;;;6.10;4.70;;;;;;;;;;7401564;19;20018;-79
2022/09/01 05:08:55;;;;;;;8.02;6.00;;;;;;;;;;7400837;19;20413;-79
2022/09/01 05:11:22;;;;;;;9.85;6.60;;;;;;;;;;7398301;19;20523;-79
2022/09/01 05:13:49;;;;;;;7.97;5.13;;;;;;;;;;7396110;19;20015;-79
2022/09/01 05:16:18;;;;;;;8.02;5.72;;;;;;;;;;7395989;19;20027;-79
2022/09/01 05:18:46;;;;;;;7.53;5.70;;;;;;;;;;7397692;19;20014;-78
2022/09/01 05:21:15;;;;;;;9.55;5.78;;;;;;;;;;7398006;19;20006;-80
2022/09/01 05:23:41;;;;;;;8.43;5.80;;;;;;;;;;7398065;19;20022;-80
2022/09/01 05:26:15;;;;;;;11.85;6.35;;;;;;;;;;7396136;19;20013;-79
2022/09/01 05:28:48;;;;;;;8.27;6.05;;;;;;;;;;7395622;19;20015;-79
2022/09/01 05:31:18;;;;;;;7.38;5.80;;;;;;;;;;7392002;19;20018;-79
2022/09/01 05:33:47;;;;;;;11.10;6.05;;;;;;;;;;7392376;19;20094;-79
2022/09/01 05:36:14;;;;;;;7.28;5.82;;;;;;;;;;7392575;19;20010;-79
2022/09/01 05:38:41;;;;;;;7.63;5.75;;;;;;;;;;7396266;19;20006;-79
2022/09/01 05:41:09;;;;;;;9.18;6.63;;;;;;;;;;7398039;19;20018;-80
2022/09/01 05:43:35;;;;;;;7.20;5.50;;;;;;;;;;7392951;19;20018;-80
2022/09/01 05:46:06;;;;;;;13.45;5.55;;;;;;;;;;7414052;19;20007;-80
2022/09/01 05:48:33;;;;;;;8.07;5.45;;;;;;;;;;7399317;19;20083;-82
2022/09/01 05:50:59;;;;;;;6.75;4.90;;;;;;;;;;7394524;19;20014;-80
2022/09/01 05:53:29;;;;;;;9.75;6.22;;;;;;;;;;7391982;19;20006;-80
2022/09/01 05:55:56;;;;;;;7.60;5.25;;;;;;;;;;7390462;19;20017;-79
2022/09/01 05:58:24;;;;;;;7.32;5.22;;;;;;;;;;7394933;19;20010;-80
2022/09/01 06:00:52;;;;;;;6.85;5.25;;;;;;;;;;7390321;19;20074;-80
2022/09/01 06:03:19;;;;;;;7.80;5.72;;;;;;;;;;7393395;19;20006;-80
2022/09/01 06:05:47;;;;;;;6.07;4.57;;;;;;;;;;7393387;19;20035;-81
2022/09/01 06:08:13;;;;;;;6.95;5.32;;;;;;;;;;7391262;19;20039;-81
2022/09/01 06:10:40;;;;;;;10.75;5.40;;;;;;;;;;7391414;19;20003;-80
2022/09/01 06:13:10;;;;;;;6.60;4.80;;;;;;;;;;7389383;19;20547;-80
2022/09/01 06:15:40;;;;;;;6.80;4.88;;;;;;;;;;7391124;19;20046;-80
2022/09/01 06:18:07;;;;;;;6.03;4.95;;;;;;;;;;7388162;19;20440;-80
2022/09/01 06:20:33;;;;;;;6.22;4.75;;;;;;;;;;7393415;19;20018;-81
2022/09/01 06:22:59;;;;;;;8.13;5.25;;;;;;;;;;7393384;19;20011;-80
2022/09/01 06:25:29;;;;;;;7.15;5.18;;;;;;;;;;7390768;19;20010;-80
2022/09/01 06:27:55;;;;;;;7.10;5.40;;;;;;;;;;7392961;19;20015;-81
2022/09/01 06:30:25;;;;;;;7.93;5.22;;;;;;;;;;7400911;19;20025;-81
2022/09/01 06:32:51;;;;;;;5.75;4.18;;;;;;;;;;7397192;19;20022;-80
2022/09/01 06:35:17;;;;;;;5.57;4.93;;;;;;;;;;7400384;19;20082;-81
2022/09/01 06:37:44;;;;;;;6.32;4.85;;;;;;;;;;7392595;19;20011;-81
2022/09/01 06:40:16;;;;;;;5.32;4.65;;;;;;;;;;7396937;19;20128;-81
2022/09/01 06:42:47;;;;;;;6.15;4.70;;;;;;;;;;7399730;19;20007;-81
2022/09/01 06:45:17;;;;;;;6.55;5.07;;;;;;;;;;7403727;19;20002;-81
2022/09/01 06:47:44;;;;;;;6.22;4.68;;;;;;;;;;7399883;19;20014;-81
2022/09/01 06:50:13;;;;;;;7.53;5.13;;;;;;;;;;7404196;19;20017;-81
2022/09/01 06:52:42;;;;;;;7.32;5.18;;;;;;;;;;7402467;19;20575;-81
2022/09/01 06:55:12;;;;;;;8.77;5.15;;;;;;;;;;7400734;19;20309;-81
2022/09/01 06:57:40;;;;;;;8.30;5.30;;;;;;;;;;7400644;19;20081;-81
2022/09/01 07:00:14;;;;;;;6.03;4.78;;;;;;;;;;7399962;19;20013;-82
2022/09/01 07:02:41;;;;;;;5.63;4.65;;;;;;;;;;7399777;19;20023;-81
2022/09/01 07:05:07;;;;;;;5.88;4.45;;;;;;;;;;7398509;19;20031;-80
2022/09/01 07:07:33;;;;;;;6.40;4.53;;;;;;;;;;7399949;19;20007;-81
2022/09/01 07:09:58;;;;;;;5.55;4.55;;;;;;;;;;7405644;19;20674;-82
2022/09/01 07:12:24;;;;;;;4.88;4.07;;;;;;;;;;7402852;19;20014;-81
2022/09/01 07:14:49;;;;;;;6.45;4.45;;;;;;;;;;7404264;19;20006;-81
2022/09/01 07:17:15;;;;;;;5.60;4.35;;;;;;;;;;7407664;19;20009;-82
2022/09/01 07:19:40;;;;;;;6.35;4.53;;;;;;;;;;7404035;19;20035;-81
2022/09/01 07:22:05;;;;;;;6.35;5.00;;;;;;;;;;7405444;19;20006;-82
2022/09/01 07:24:32;;;;;;;5.57;4.20;;;;;;;;;;7402763;19;20006;-81
2022/09/01 07:26:57;;;;;;;4.40;3.90;;;;;;;;;;7402967;19;20010;-81
2022/09/01 07:29:25;;;;;;;4.13;3.70;;;;;;;;;;7406959;19;20539;-81
2022/09/01 07:31:54;;;;;;;6.00;4.65;;;;;;;;;;7405910;19;20488;-81
2022/09/01 07:34:20;;;;;;;5.22;3.80;;;;;;;;;;7408212;19;20011;-81
2022/09/01 07:36:45;;;;;;;5.28;3.88;;;;;;;;;;7406178;19;20006;-82
2022/09/01 07:39:12;;;;;;;6.60;4.15;;;;;;;;;;7404104;19;20017;-82
2022/09/01 07:41:40;;;;;;;5.60;3.88;;;;;;;;;;7404961;19;20073;-81
2022/09/01 07:44:09;;;;;;;6.63;4.13;;;;;;;;;;7404137;19;20030;-82
2022/09/01 07:46:34;;;;;;;5.25;3.83;;;;;;;;;;7400154;19;20367;-81
2022/09/01 07:49:01;;;;;;;5.20;4.03;;;;;;;;;;7402904;19;20031;-81
2022/09/01 07:51:28;;;;;;;3.85;3.45;;;;;;;;;;7405769;19;20472;-82
2022/09/01 07:53:54;;;;;;;5.55;3.58;;;;;;;;;;7403252;19;20044;-83
2022/09/01 07:56:22;;;;;;;4.30;3.10;;;;;;;;;;7403278;19;20346;-82
2022/09/01 07:58:49;;;;;;;4.20;3.30;;;;;;;;;;7402943;19;20010;-83
2022/09/01 08:01:17;;;;;;;4.28;3.40;;;;;;;;;;7401293;19;19999;-82
2022/09/01 08:03:48;;;;;;;7.30;3.63;;;;;;;;;;7402113;19;20142;-82
2022/09/01 08:06:19;;;;;;;3.75;3.20;;;;;;;;;;7403180;19;20022;-82
2022/09/01 08:08:46;;;;;;;4.78;3.50;;;;;;;;;;7399189;19;20014;-82
2022/09/01 08:11:23;;;;;;;4.00;3.00;;;;;;;;;;7401838;19;20073;-82
2022/09/01 08:13:50;;;;;;;4.43;3.10;;;;;;;;;;7400952;19;20025;-82
2022/09/01 08:16:15;;;;;;;4.00;3.10;;;;;;;;;;7398853;19;20002;-82
2022/09/01 08:18:42;;;;;;;2.58;2.38;;;;;;;;;;7397740;19;20658;-82
2022/09/01 08:21:10;;;;;;;5.90;3.33;;;;;;;;;;7400526;19;20013;-81
2022/09/01 08:23:36;;;;;;;4.35;3.17;;;;;;;;;;7397663;19;20521;-82
2022/09/01 08:26:10;;;;;;;5.65;3.05;;;;;;;;;;7401154;19;20006;-82
2022/09/01 08:28:36;;;;;;;3.67;3.28;;;;;;;;;;7398689;19;20031;-81
2022/09/01 08:31:13;;;;;;;5.95;3.40;;;;;;;;;;7398172;19;20011;-82
2022/09/01 08:33:40;;;;;;;4.18;2.83;;;;;;;;;;7396730;19;20028;-81
2022/09/01 08:36:07;;;;;;;3.83;3.13;;;;;;;;;;7399310;19;20014;-82
2022/09/01 08:38:33;;;;;;;5.88;3.22;;;;;;;;;;7398067;19;20006;-82
2022/09/01 08:40:59;;;;;;;3.35;3.05;;;;;;;;;;7399152;19;20385;-82
2022/09/01 08:43:54;;;;;;;3.88;3.47;;;;;;;;;;7399592;19;20028;-82
2022/09/01 08:46:33;;;;;;;6.20;3.53;;;;;;;;;;7396405;19;20014;-82
2022/09/01 08:49:06;;;;;;;5.43;3.33;;;;;;;;;;7396669;19;20478;-82
2022/09/01 08:51:41;;;;;;;3.78;3.35;;;;;;;;;;7398676;19;20007;-82
2022/09/01 08:54:12;;;;;;;3.40;2.85;;;;;;;;;;7416348;19;20007;-82
2022/09/01 08:56:39;;;;;;;3.60;2.75;;;;;;;;;;7402769;19;20017;-82
2022/09/01 08:59:08;;;;;;;4.25;3.45;;;;;;;;;;7402068;19;20590;-82
2022/09/01 09:01:55;;;;;;;4.82;3.10;;;;;;;;;;7401571;19;20046;-82
2022/09/01 09:04:46;;;;;;;4.20;3.05;;;;;;;;;;7401509;19;20436;-83
2022/09/01 09:07:23;;;;;;;4.60;2.72;;;;;;;;;;7399319;19;20320;-82
2022/09/01 09:10:07;;;;;;;2.97;2.67;;;;;;;;;;7400666;19;20006;-81
2022/09/01 09:12:32;;;;;;;5.07;2.70;;;;;;;;;;7400035;19;20005;-82
2022/09/01 09:15:18;;;;;;;3.58;2.92;;;;;;;;;;7398938;19;20069;-82
2022/09/01 09:17:58;;;;;;;3.85;2.83;;;;;;;;;;7399167;19;20134;-84
2022/09/01 09:20:25;;;;;;;5.05;2.92;;;;;;;;;;7401287;19;20023;-82
2022/09/01 09:22:51;;;;;;;5.63;3.30;;;;;;;;;;7399326;19;20100;-82
2022/09/01 09:25:17;;;;;;;3.38;3.08;;;;;;;;;;7397817;19;20118;-83
2022/09/01 09:27:45;;;;;;;2.92;2.60;;;;;;;;;;7395753;19;20111;-82
2022/09/01 09:30:25;;;;;;;3.50;2.70;;;;;;;;;;7395640;19;20014;-83
2022/09/01 09:32:59;;;;;;;3.05;2.53;;;;;;;;;;7393651;19;20006;-83
2022/09/01 09:35:24;;;;;;;3.07;2.77;;;;;;;;;;7397116;19;20014;-83
2022/09/01 09:37:50;;;;;;;2.80;2.42;;;;;;;;;;7398719;19;20247;-84
2022/09/01 09:40:25;;;;;;;7.38;2.90;;;;;;;;;;7397197;19;20057;-83
2022/09/01 09:42:53;;;;;;;2.87;2.37;;;;;;;;;;7398358;19;20010;-83
2022/09/01 09:45:39;;;;;;;3.42;2.60;;;;;;;;;;7398683;19;20452;-84
2022/09/01 09:48:24;;;;;;;4.10;2.33;;;;;;;;;;7398881;19;20014;-84
2022/09/01 09:50:50;;;;;;;2.15;1.90;;;;;;;;;;7393403;19;20031;-81
2022/09/01 09:53:31;;;;;;;4.10;2.75;;;;;;;;;;7393034;19;20007;-82
2022/09/01 09:56:18;;;;;;;3.13;2.35;;;;;;;;;;7395699;19;20014;-85
2022/09/01 09:58:46;;;;;;;3.10;2.25;;;;;;;;;;7395024;19;20007;-85
2022/09/01 10:01:21;;;;;;;2.90;2.20;;;;;;;;;;7395554;19;20002;-82
2022/09/01 10:03:49;;;;;;;;;;;;;;;;;;7400794;19;20012;-82
2022/09/01 10:06:38;;;;;;;6.40;2.10;;;;;;;;;;7401526;19;19915;-83
2022/09/01 10:09:06;;;;;;;2.58;2.03;;;;;;;;;;7402975;19;20090;-85
2022/09/01 10:11:39;;;;;;;3.17;1.98;;;;;;;;;;7404126;19;20014;-82
2022/09/01 10:14:28;;;;;;;3.38;2.55;;;;;;;;;;7399890;19;20010;-82
2022/09/01 10:17:01;;;;;;;4.47;2.33;;;;;;;;;;7400116;19;20043;-83
2022/09/01 10:19:29;;;;;;;3.00;2.30;;;;;;;;;;7402954;19;20013;-83
2022/09/01 10:21:55;;;;;;;2.72;2.00;;;;;;;;;;7402111;19;20317;-82
2022/09/01 10:24:30;;;;;;;2.10;1.75;;;;;;;;;;7402506;19;20013;-82
2022/09/01 10:27:09;;;;;;;2.20;2.00;;;;;;;;;;7399687;19;20043;-82
2022/09/01 10:29:35;;;;;;;2.55;2.10;;;;;;;;;;7401655;19;20519;-82
2022/09/01 10:32:01;;;;;;;2.42;1.92;;;;;;;;;;7401737;19;19998;-81
2022/09/01 10:34:32;;;;;;;4.22;1.58;;;;;;;;;;7403352;19;20329;-82
2022/09/01 10:36:59;;;;;;;4.28;2.03;;;;;;;;;;7402352;19;20013;-81
2022/09/01 10:39:24;;;;;;;1.88;1.63;;;;;;;;;;7402813;19;20085;-80
2022/09/01 10:41:55;;;;;;;1.95;1.77;;;;;;;;;;7403962;19;19999;-81
2022/09/01 10:44:25;;;;;;;2.13;1.58;;;;;;;;;;7403913;19;20002;-81
2022/09/01 10:46:51;;;;;;;4.03;1.98;;;;;;;;;;7397271;19;20452;-81
2022/09/01 10:49:19;;;;;;;2.50;1.77;;;;;;;;;;7401453;19;19998;-82
2022/09/01 10:51:45;;;;;;;4.63;2.28;;;;;;;;;;7398404;19;20018;-82
2022/09/01 10:54:39;;;;;;;4.15;2.10;;;;;;;;;;7397390;19;20023;-81
2022/09/01 10:57:35;;;;;;;2.03;1.67;;;;;;;;;;7397611;19;20035;-82
2022/09/01 11:00:35;;;;;;;1.77;1.48;;;;;;;;;;7399592;19;20053;-82
2022/09/01 11:03:10;;;;;;;2.67;1.90;;;;;;;;;;7394790;19;20006;-81
2022/09/01 11:05:53;;;;;;;4.60;1.20;;;;;;;;;;7399675;19;20017;-81
2022/09/01 11:08:40;;;;;;;1.70;1.60;;;;;;;;;;7398091;19;20042;-81
2022/09/01 11:11:14;;;;;;;2.33;1.50;;;;;;;;;;7400970;19;20023;-81
2022/09/01 11:13:54;;;;;;;1.83;1.50;;;;;;;;;;7397511;19;20019;-81
2022/09/01 11:16:43;;;;;;;2.22;1.25;;;;;;;;;;7397896;19;20267;-81
2022/09/01 11:19:44;;;;;;;1.40;1.30;;;;;;;;;;7397199;19;20436;-81
2022/09/01 11:22:12;;;;;;;1.48;1.38;;;;;;;;;;7395269;19;20006;-81
2022/09/01 11:24:37;;;;;;;1.90;1.50;;;;;;;;;;7399853;19;20005;-81
2022/09/01 11:27:04;;;;;;;1.45;1.30;;;;;;;;;;7395236;19;20010;-81
2022/09/01 11:29:59;;;;;;;1.45;1.33;;;;;;;;;;7398986;19;20010;-80
2022/09/01 11:32:31;;;;;;;1.10;1.00;;;;;;;;;;7392687;19;20051;-81
2022/09/01 11:35:01;;;;;;;0.90;0.90;;;;;;;;;;7399521;19;19995;-81
2022/09/01 11:37:26;;;;;;;2.20;1.15;;;;;;;;;;7391820;19;20030;-80
2022/09/01 11:39:57;;;;;;;2.25;1.30;;;;;;;;;;7399319;19;20006;-81
2022/09/01 11:42:22;;;;;;;1.77;1.23;;;;;;;;;;7398123;19;19998;-81
2022/09/01 11:45:05;;;;;;;2.22;1.23;;;;;;;;;;7390124;19;20002;-81
2022/09/01 11:47:35;;;;;;;1.00;0.90;;;;;;;;;;7394249;19;20041;-81
2022/09/01 11:50:07;;;;;;;1.80;1.00;;;;;;;;;;7396626;19;20003;-81
2022/09/01 11:52:40;;;;;;;1.42;0.98;;;;;;;;;;7362103;19;20014;-80
2022/09/01 11:55:06;;;;;;;4.28;1.30;;;;;;;;;;7392339;19;20464;-82
2022/09/01 11:57:39;;;;;;;1.23;1.10;;;;;;;;;;7386216;19;20613;-81
2022/09/01 12:00:26;;;;;;;1.63;1.15;;;;;;;;;;7399001;19;20014;-81
2022/09/01 12:02:53;;;;;;;1.27;1.00;;;;;;;;;;7411023;19;20422;-82
2022/09/01 12:05:31;;;;;;;1.10;0.95;;;;;;;;;;7403395;19;20016;-80
2022/09/01 12:07:58;;;;;;;0.90;0.90;;;;;;;;;;7400567;19;20456;-82
2022/09/01 12:10:26;;;;;;;0.90;0.90;;;;;;;;;;7400758;19;20009;-80
2022/09/01 12:13:16;;;;;;;1.17;1.08;;;;;;;;;;7399633;19;20013;-81
2022/09/01 12:15:42;;;;;;;1.13;1.02;;;;;;;;;;7398900;19;20011;-80
2022/09/01 12:18:17;;;;;;;1.85;1.00;;;;;;;;;;7393232;19;20422;-81
2022/09/01 12:20:45;;;;;;;0.88;0.73;;;;;;;;;;7399107;19;20356;-83
2022/09/01 12:23:24;;;;;;;1.50;0.85;;;;;;;;;;7396858;19;20009;-82
2022/09/01 12:25:51;;;;;;;1.98;1.00;;;;;;;;;;7398078;19;20200;-81
2022/09/01 12:28:16;;;;;;;1.52;1.00;;;;;;;;;;7407526;19;20013;-79
2022/09/01 12:30:43;;;;;;;1.10;0.98;;;;;;;;;;7408205;19;20007;-79
2022/09/01 12:33:12;;;;;;;1.17;1.00;;;;;;;;;;7403312;19;20026;-79
2022/09/01 12:35:38;;;;;;;0.90;0.90;;;;;;;;;;7399794;19;20018;-78
2022/09/01 12:38:36;;;;;;;1.13;0.90;;;;;;;;;;7408955;19;20006;-79
2022/09/01 12:41:01;;;;;;;1.52;1.17;;;;;;;;;;7406618;19;20079;-79
2022/09/01 12:43:28;;;;;;;1.55;1.00;;;;;;;;;;7410042;19;20003;-79
2022/09/01 12:45:54;;;;;;;0.80;0.73;;;;;;;;;;7398478;19;20009;-79
2022/09/01 12:48:28;;;;;;;1.50;1.13;;;;;;;;;;7409680;19;20148;-80
2022/09/01 12:50:55;;;;;;;4.43;1.02;;;;;;;;;;7407412;19;20023;-80
2022/09/01 12:53:23;;;;;;;1.70;0.90;;;;;;;;;;7405254;19;20117;-79
2022/09/01 12:56:18;;;;;;;1.27;1.15;;;;;;;;;;7404870;19;20010;-80
2022/09/01 12:58:48;;;;;;;1.20;1.08;;;;;;;;;;7405812;19;20002;-79
2022/09/01 13:01:29;;;;;;;2.53;0.93;;;;;;;;;;7406465;19;20014;-80
2022/09/01 13:04:10;;;;;;;0.88;0.82;;;;;;;;;;7406813;19;20021;-80
2022/09/01 13:06:36;;;;;;;4.13;1.10;;;;;;;;;;7403682;19;20007;-77
2022/09/01 13:09:01;;;;;;;2.42;0.90;;;;;;;;;;7394045;19;20397;-78
2022/09/01 13:11:27;;;;;;;1.40;0.98;;;;;;;;;;7389105;19;20485;-78
2022/09/01 13:13:52;;;;;;;0.95;0.95;;;;;;;;;;7391220;19;20020;-76
2022/09/01 13:16:17;;;;;;;1.67;1.00;;;;;;;;;;7385572;19;20921;-77
2022/09/01 13:18:43;;;;;;;2.75;1.05;;;;;;;;;;7389475;19;19999;-77
2022/09/01 13:21:11;;;;;;;1.48;0.70;;;;;;;;;;7390281;19;20006;-77
2022/09/01 13:23:36;;;;;;;1.02;0.90;;;;;;;;;;7388514;19;20007;-77
2022/09/01 13:26:02;;;;;;;2.20;1.10;;;;;;;;;;7389450;19;20039;-77
2022/09/01 13:28:27;;;;;;;1.13;1.00;;;;;;;;;;7388404;19;20035;-77
2022/09/01 13:30:58;;;;;;;1.50;0.90;;;;;;;;;;7389830;19;20463;-77
2022/09/01 13:33:25;;;;;;;2.50;1.52;;;;;;;;;;7388983;19;20002;-77
2022/09/01 13:35:51;;;;;;;1.08;0.98;;;;;;;;;;7397335;19;20015;-78
2022/09/01 13:38:17;;;;;;;1.00;0.90;;;;;;;;;;7406998;19;20013;-80
2022/09/01 13:40:45;;;;;;;0.93;0.82;;;;;;;;;;7407525;19;20011;-79
2022/09/01 13:43:12;;;;;;;0.88;0.75;;;;;;;;;;7410383;19;20007;-80
2022/09/01 13:45:39;;;;;;;0.88;0.88;;;;;;;;;;7405550;19;20033;-79
2022/09/01 13:48:05;;;;;;;1.35;0.90;;;;;;;;;;7417689;19;20011;-80
2022/09/01 13:50:30;;;;;;;0.70;0.70;;;;;;;;;;7417725;19;20036;-80
2022/09/01 13:52:56;;;;;;;1.25;0.80;;;;;;;;;;7413023;19;20015;-79
2022/09/01 13:55:27;;;;;;;1.38;0.80;;;;;;;;;;7415296;19;19999;-80
2022/09/01 13:57:54;;;;;;;1.98;0.85;;;;;;;;;;7417402;19;20002;-81
2022/09/01 14:00:25;;;;;;;1.33;0.90;;;;;;;;;;7416541;19;20013;-80
2022/09/01 14:02:53;;;;;;;1.58;0.80;;;;;;;;;;7417411;19;20031;-81
2022/09/01 14:05:24;;;;;;;1.25;0.93;;;;;;;;;;7416116;19;20015;-80
2022/09/01 14:07:51;;;;;;;1.48;0.80;;;;;;;;;;7412317;19;20077;-80
2022/09/01 14:10:17;;;;;;;3.15;1.00;;;;;;;;;;7419065;19;19995;-81
2022/09/01 14:12:42;;;;;;;1.70;1.08;;;;;;;;;;7412500;19;20007;-80
2022/09/01 14:15:09;;;;;;;1.25;0.90;;;;;;;;;;7416587;19;20014;-80
2022/09/01 14:17:36;;;;;;;0.85;0.80;;;;;;;;;;7413737;19;20020;-80
2022/09/01 14:20:05;;;;;;;0.80;0.75;;;;;;;;;;7414005;19;20007;-80
2022/09/01 14:22:31;;;;;;;1.08;0.80;;;;;;;;;;7414322;19;20023;-80
2022/09/01 14:24:57;;;;;;;1.55;0.80;;;;;;;;;;7414715;19;20006;-79
2022/09/01 14:27:23;;;;;;;1.00;0.80;;;;;;;;;;7415541;19;20578;-80
2022/09/01 14:29:49;;;;;;;0.60;0.60;;;;;;;;;;7411789;19;20016;-80
2022/09/01 14:32:16;;;;;;;0.75;0.70;;;;;;;;;;7410752;19;19995;-80
2022/09/01 14:34:42;;;;;;;0.45;0.45;;;;;;;;;;7412060;19;20010;-80
2022/09/01 14:37:07;;;;;;;1.10;0.90;;;;;;;;;;7410994;19;20492;-80
2022/09/01 14:39:33;;;;;;;0.85;0.73;;;;;;;;;;7412673;19;20047;-80
2022/09/01 14:41:58;;;;;;;1.25;0.90;;;;;;;;;;7412349;19;20015;-80
2022/09/01 14:44:23;;;;;;;0.80;0.80;;;;;;;;;;7412504;19;20410;-81
2022/09/01 14:46:49;;;;;;;0.85;0.70;;;;;;;;;;7411879;19;20014;-80
2022/09/01 14:49:16;;;;;;;0.70;0.70;;;;;;;;;;7413482;19;20446;-80
2022/09/01 14:51:41;;;;;;;1.27;0.70;;;;;;;;;;7412699;19;20015;-80
2022/09/01 14:54:06;;;;;;;0.60;0.60;;;;;;;;;;7410240;19;20002;-80
2022/09/01 14:56:32;;;;;;;1.25;0.80;;;;;;;;;;7413064;19;19997;-81
2022/09/01 14:58:59;;;;;;;1.60;0.80;;;;;;;;;;7412792;19;20002;-80
2022/09/01 15:01:25;;;;;;;1.25;0.70;;;;;;;;;;7412673;19;20005;-80
2022/09/01 15:03:51;;;;;;;0.90;0.63;;;;;;;;;;7409455;19;20044;-80